createdAt,value
2023-04-15T00:03:35.531Z,101735.13
2023-04-15T00:13:43.369Z,101743.91
2023-04-15T00:23:50.327Z,101753.59
2023-04-15T00:33:54.632Z,101759.16
2023-04-15T00:43:57.509Z,101768.91
2023-04-15T00:54:02.354Z,101776.41
2023-04-15T01:04:06.137Z,101785.59
2023-04-15T01:14:12.248Z,101795.50
2023-04-15T01:24:18.495Z,101802.56
2023-04-15T01:34:23.196Z,101810.72
2023-04-15T01:44:27.186Z,101818.63
2023-04-15T01:54:31.765Z,101827.72
2023-04-15T02:04:35.765Z,101830.38
2023-04-15T02:14:40.248Z,101839.88
2023-04-15T02:24:43.081Z,101846.41
2023-04-15T02:34:48.170Z,101855.31
2023-04-15T02:44:51.564Z,101862.59
2023-04-15T02:55:01.208Z,101870.75
2023-04-15T03:05:04.792Z,101879.72
2023-04-15T03:15:11.163Z,101889.59
2023-04-15T03:25:15.322Z,101893.34
2023-04-15T03:35:20.470Z,101903.56
2023-04-15T03:45:24.179Z,101909.16
2023-04-15T03:55:29.550Z,101913.88
2023-04-15T04:05:32.453Z,101918.78
2023-04-15T04:15:36.939Z,101926.94
2023-04-15T04:25:39.775Z,101937.78
2023-04-15T04:35:44.218Z,101948.41
2023-04-15T04:45:47.581Z,101958.50
2023-04-15T04:55:52.767Z,101961.16
2023-04-15T05:05:55.818Z,101970.28
2023-04-15T05:16:01.610Z,101977.88
2023-04-15T05:26:04.620Z,101983.47
2023-04-15T05:36:12.910Z,101993.28
2023-04-15T05:46:17.179Z,101997.84
2023-04-15T05:56:21.738Z,101998.09
2023-04-15T06:06:25.130Z,102004.34
2023-04-15T06:16:32.686Z,102012.91
2023-04-15T06:26:43.246Z,102018.53
2023-04-15T06:36:49.694Z,102027.72
2023-04-15T06:47:02.380Z,102036.25
2023-04-15T06:57:10.506Z,102043.81
2023-04-15T07:07:15.402Z,102050.06
2023-04-15T07:17:21.570Z,102057.44
2023-04-15T07:27:31.540Z,102061.72
2023-04-15T07:37:50.575Z,102066.94
2023-04-15T07:47:56.867Z,102065.59
2023-04-15T07:58:03.737Z,102066.53
2023-04-15T08:08:19.792Z,102071.19
2023-04-15T08:18:38.967Z,102069.03
2023-04-15T08:29:03.012Z,102068.34
2023-04-15T08:39:19.022Z,102069.38
2023-04-15T08:49:25.936Z,102064.19
2023-04-15T08:59:32.521Z,102056.31
2023-04-15T09:09:38.309Z,102062.03
2023-04-15T09:19:43.636Z,102066.25
2023-04-15T09:29:51.483Z,102070.41
2023-04-15T09:39:56.974Z,102072.47
2023-04-15T09:50:02.530Z,102075.19
2023-04-15T10:00:11.983Z,102077.63
2023-04-15T10:10:16.114Z,102074.63
2023-04-15T10:20:22.377Z,102076.59
2023-04-15T10:30:27.350Z,102074.59
2023-04-15T10:40:34.189Z,102077.69
2023-04-15T10:50:38.928Z,102070.63
2023-04-15T11:00:53.768Z,102068.44
2023-04-15T11:10:58.354Z,102063.94
2023-04-15T11:21:05.485Z,102064.28
2023-04-15T11:31:12.170Z,102057.81
2023-04-15T11:41:22.716Z,102055.94
2023-04-15T11:51:26.780Z,102054.97
2023-04-15T12:01:35.999Z,102054.38
2023-04-15T12:11:46.920Z,102047.63
2023-04-15T12:21:52.351Z,102044.00
2023-04-15T12:31:57.361Z,102042.97
2023-04-15T12:42:01.865Z,102040.09
2023-04-15T12:52:05.229Z,102038.38
2023-04-15T13:02:10.500Z,102036.97
2023-04-15T13:12:16.064Z,102035.91
2023-04-15T13:22:21.640Z,102035.09
2023-04-15T13:32:29.578Z,102032.59
2023-04-15T13:42:53.302Z,102027.94
2023-04-15T13:53:07.262Z,102021.09
2023-04-15T14:03:19.195Z,102012.59
2023-04-15T14:13:29.559Z,102002.19
2023-04-15T14:23:35.207Z,101997.56
2023-04-15T14:54:41.288Z,101975.91
2023-04-15T15:04:51.530Z,101973.38
2023-04-15T15:14:56.828Z,101968.16
2023-04-15T15:25:02.847Z,101966.84
2023-04-15T15:35:12.573Z,101960.00
2023-04-15T15:45:19.799Z,101957.84
2023-04-15T15:55:26.601Z,101957.88
2023-04-15T16:05:36.512Z,101957.41
2023-04-15T16:26:17.233Z,101954.69
2023-04-15T16:36:23.878Z,101956.63
2023-04-15T16:46:33.891Z,101952.00
2023-04-15T16:56:40.805Z,101954.47
2023-04-15T17:07:09.919Z,101949.13
2023-04-15T17:17:21.720Z,101949.19
2023-04-15T17:27:39.562Z,101948.72
2023-04-15T17:37:57.140Z,101939.59
2023-04-15T17:48:04.367Z,101929.59
2023-04-15T17:58:09.096Z,101919.91
2023-04-15T18:08:15.087Z,101922.66
2023-04-15T18:18:19.026Z,101928.53
2023-04-15T18:28:24.022Z,101934.41
2023-04-15T18:38:28.424Z,101940.13
2023-04-15T18:48:33.115Z,101942.34
2023-04-15T18:59:18.188Z,101944.50
2023-04-15T19:09:04.972Z,101949.34
2023-04-15T19:19:08.031Z,101953.78
2023-04-15T19:29:13.191Z,101958.91
2023-04-15T19:39:17.145Z,101962.41
2023-04-15T19:49:23.210Z,101966.75
2023-04-15T19:59:27.625Z,101972.13
2023-04-15T20:09:35.403Z,101974.31
2023-04-15T20:19:39.956Z,101979.75
2023-04-15T20:29:51.487Z,101976.56
2023-04-15T20:39:57.145Z,101979.81
2023-04-15T20:50:05.397Z,101971.63
2023-04-15T21:00:12.411Z,101978.03
2023-04-15T21:10:21.312Z,101983.81
2023-04-15T21:20:27.023Z,101980.09
2023-04-15T21:30:32.096Z,101982.47
2023-04-15T21:40:41.055Z,101985.25
2023-04-15T21:50:45.532Z,101992.34
2023-04-15T22:00:49.539Z,101995.91
2023-04-15T22:10:55.364Z,102003.91
2023-04-15T22:20:59.300Z,102010.13
2023-04-15T22:31:05.749Z,102002.25
2023-04-15T22:41:10.177Z,102007.16
2023-04-15T22:51:22.480Z,102014.13
2023-04-15T23:01:27.519Z,102012.13
2023-04-15T23:11:34.506Z,102015.91
2023-04-15T23:21:38.675Z,102017.94
2023-04-15T23:31:44.095Z,102016.75
2023-04-15T23:41:49.033Z,102016.03
2023-04-15T23:51:54.278Z,102021.00
